createdAt,value
2022-08-01T00:02:02.205Z,3.45
2022-08-01T00:04:29.694Z,3.95
2022-08-01T00:06:56.982Z,4.65
2022-08-01T00:09:25.981Z,5.50
2022-08-01T00:11:59.725Z,6.18
2022-08-01T00:14:32.051Z,5.88
2022-08-01T00:17:05.119Z,5.13
2022-08-01T00:19:35.170Z,3.95
2022-08-01T00:22:02.468Z,4.20
2022-08-01T00:24:31.172Z,4.55
2022-08-01T00:26:58.695Z,3.55
2022-08-01T00:30:12.816Z,4.78
2022-08-01T00:32:13.430Z,5.82
2022-08-01T00:34:40.714Z,4.97
2022-08-01T00:37:07.875Z,3.70
2022-08-01T00:39:36.843Z,3.70
2022-08-01T00:42:08.254Z,3.33
2022-08-01T00:44:35.638Z,4.32
2022-08-01T00:47:04.053Z,5.45
2022-08-01T00:49:31.640Z,4.38
2022-08-01T00:51:59.569Z,5.25
2022-08-01T00:54:27.906Z,4.00
2022-08-01T00:56:56.998Z,4.70
2022-08-01T00:59:25.855Z,3.75
2022-08-01T01:01:53.815Z,5.28
2022-08-01T01:04:21.226Z,4.57
2022-08-01T01:07:11.393Z,3.60
2022-08-01T01:09:46.817Z,4.50
2022-08-01T01:12:23.320Z,5.72
2022-08-01T01:14:57.321Z,6.07
2022-08-01T01:17:42.034Z,5.50
2022-08-01T01:20:18.607Z,5.93
2022-08-01T01:23:13.418Z,5.30
2022-08-01T01:26:03.026Z,5.78
2022-08-01T01:28:36.306Z,6.07
2022-08-01T01:31:10.959Z,5.32
2022-08-01T01:33:47.218Z,5.13
2022-08-01T01:36:17.833Z,5.20
2022-08-01T01:38:47.181Z,5.05
2022-08-01T01:41:17.151Z,4.20
2022-08-01T01:43:46.029Z,5.13
2022-08-01T01:46:18.801Z,3.70
2022-08-01T01:48:47.462Z,3.97
2022-08-01T01:51:16.325Z,4.35
2022-08-01T01:53:45.580Z,6.57
2022-08-01T01:56:15.867Z,7.95
2022-08-01T01:58:45.179Z,8.10
2022-08-01T02:01:15.440Z,6.78
2022-08-01T02:04:03.843Z,8.80
2022-08-01T02:06:32.795Z,6.10
2022-08-01T02:09:01.258Z,9.07
2022-08-01T02:11:28.927Z,10.40
2022-08-01T02:13:59.409Z,10.52
2022-08-01T02:16:31.057Z,11.40
2022-08-01T02:18:59.278Z,13.50
2022-08-01T02:21:30.554Z,12.48
2022-08-01T02:24:13.938Z,10.90
2022-08-01T02:26:47.382Z,10.07
2022-08-01T02:29:19.623Z,7.32
2022-08-01T02:31:52.972Z,8.73
2022-08-01T02:34:22.329Z,8.32
2022-08-01T02:36:51.928Z,9.68
2022-08-01T02:39:22.465Z,9.27
2022-08-01T02:41:54.815Z,7.20
2022-08-01T02:44:28.064Z,7.20
2022-08-01T02:47:00.862Z,9.20
2022-08-01T02:49:30.906Z,8.15
2022-08-01T02:52:00.222Z,9.23
2022-08-01T02:54:28.943Z,9.18
2022-08-01T02:56:58.582Z,8.27
2022-08-01T02:59:28.361Z,7.75
2022-08-01T03:02:01.335Z,8.18
2022-08-01T03:04:33.556Z,7.78
2022-08-01T03:07:03.695Z,7.97
2022-08-01T03:09:34.491Z,7.22
2022-08-01T03:12:04.847Z,7.90
2022-08-01T03:14:36.250Z,7.30
2022-08-01T03:17:06.561Z,7.93
2022-08-01T03:19:35.342Z,7.53
2022-08-01T03:22:03.585Z,7.18
2022-08-01T03:24:33.247Z,7.65
2022-08-01T03:27:01.409Z,8.48
2022-08-01T03:29:30.970Z,8.27
2022-08-01T03:31:59.656Z,7.70
2022-08-01T03:34:29.908Z,9.18
2022-08-01T03:37:03.546Z,8.45
2022-08-01T03:39:34.953Z,7.75
2022-08-01T03:42:08.805Z,7.93
2022-08-01T03:44:38.811Z,8.68
2022-08-01T03:47:09.627Z,8.38
2022-08-01T03:49:42.334Z,8.05
2022-08-01T03:52:10.892Z,8.45
2022-08-01T03:54:43.220Z,8.25
2022-08-01T03:57:34.910Z,8.10
2022-08-01T03:59:59.991Z,8.32
2022-08-01T04:02:28.584Z,9.02
2022-08-01T04:04:57.460Z,9.00
2022-08-01T04:07:26.578Z,9.30
2022-08-01T04:09:54.412Z,8.85
2022-08-01T04:12:21.919Z,9.63
2022-08-01T04:14:49.491Z,9.73
2022-08-01T04:17:17.218Z,9.10
2022-08-01T04:19:45.543Z,9.68
2022-08-01T04:22:16.390Z,9.40
2022-08-01T04:24:48.198Z,9.35
2022-08-01T04:27:49.176Z,10.13
2022-08-01T04:30:09.115Z,8.93
2022-08-01T04:32:40.701Z,9.15
2022-08-01T04:35:23.246Z,10.02
2022-08-01T04:38:03.881Z,9.50
2022-08-01T04:40:32.642Z,10.20
2022-08-01T04:43:00.028Z,9.10
2022-08-01T04:45:28.145Z,9.63
2022-08-01T04:47:58.030Z,9.98
2022-08-01T04:50:25.359Z,9.55
2022-08-01T04:52:53.139Z,9.90
2022-08-01T04:55:22.455Z,10.10
2022-08-01T04:57:49.816Z,10.60
2022-08-01T05:00:17.386Z,9.20
2022-08-01T05:02:44.992Z,8.07
2022-08-01T05:05:13.545Z,6.90
2022-08-01T05:07:44.169Z,7.47
2022-08-01T05:10:13.175Z,6.20
2022-08-01T05:12:42.281Z,5.68
2022-08-01T05:15:15.213Z,5.85
2022-08-01T05:17:43.568Z,5.30
2022-08-01T05:20:12.103Z,5.50
2022-08-01T05:22:39.506Z,5.13
2022-08-01T05:25:07.907Z,4.40
2022-08-01T05:27:35.550Z,4.45
2022-08-01T05:30:04.844Z,4.25
2022-08-01T05:32:32.754Z,4.88
2022-08-01T05:35:00.117Z,4.43
2022-08-01T05:37:27.412Z,4.55
2022-08-01T05:39:55.131Z,4.47
2022-08-01T05:42:22.293Z,4.53
2022-08-01T05:44:49.781Z,4.38
2022-08-01T05:47:19.302Z,4.53
2022-08-01T05:49:46.980Z,4.57
2022-08-01T05:52:14.707Z,4.35
2022-08-01T05:54:42.283Z,4.53
2022-08-01T05:57:09.481Z,4.68
2022-08-01T05:59:38.561Z,4.65
2022-08-01T06:02:06.397Z,4.53
2022-08-01T06:04:35.228Z,4.53
2022-08-01T06:07:02.416Z,5.00
2022-08-01T06:09:30.618Z,4.30
2022-08-01T06:11:57.842Z,4.22
2022-08-01T06:14:25.057Z,4.05
2022-08-01T06:16:52.605Z,3.88
2022-08-01T06:19:20.109Z,4.10
2022-08-01T06:21:48.817Z,3.72
2022-08-01T06:24:16.585Z,3.92
2022-08-01T06:26:43.877Z,3.85
2022-08-01T06:29:11.397Z,4.03
2022-08-01T06:31:39.926Z,3.47
2022-08-01T06:34:07.225Z,3.55
2022-08-01T06:36:34.497Z,3.33
2022-08-01T06:39:03.633Z,3.38
2022-08-01T06:41:30.915Z,3.17
2022-08-01T06:43:58.113Z,2.92
2022-08-01T06:46:30.530Z,3.30
2022-08-01T06:48:59.773Z,2.92
2022-08-01T06:51:27.475Z,2.70
2022-08-01T06:53:54.727Z,2.85
2022-08-01T06:56:23.446Z,2.97
2022-08-01T06:58:51.422Z,2.90
2022-08-01T07:01:21.146Z,3.22
2022-08-01T07:03:52.366Z,3.17
2022-08-01T07:06:24.041Z,2.97
2022-08-01T07:08:51.605Z,3.20
2022-08-01T07:11:19.275Z,3.20
2022-08-01T07:13:48.386Z,2.80
2022-08-01T07:16:16.194Z,3.00
2022-08-01T07:18:43.359Z,3.08
2022-08-01T07:21:39.013Z,2.80
2022-08-01T07:23:58.212Z,3.13
2022-08-01T07:26:29.778Z,2.97
2022-08-01T07:28:58.838Z,2.55
2022-08-01T07:31:30.571Z,3.13
2022-08-01T07:34:00.147Z,3.05
2022-08-01T07:36:27.410Z,3.10
2022-08-01T07:38:54.645Z,3.03
2022-08-01T07:41:22.412Z,2.85
2022-08-01T07:44:10.988Z,3.25
2022-08-01T07:46:38.600Z,3.13
2022-08-01T07:49:05.920Z,3.50
2022-08-01T07:51:33.201Z,3.20
2022-08-01T07:54:00.769Z,3.25
2022-08-01T07:56:27.988Z,3.53
2022-08-01T07:58:55.259Z,3.10
2022-08-01T08:01:24.339Z,3.08
2022-08-01T08:03:51.644Z,3.50
2022-08-01T08:06:18.874Z,3.20
2022-08-01T08:08:46.770Z,3.60
2022-08-01T08:11:14.142Z,3.20
2022-08-01T08:13:41.417Z,3.90
2022-08-01T08:16:09.072Z,3.13
2022-08-01T08:18:37.927Z,3.53
2022-08-01T08:21:06.921Z,4.15
2022-08-01T08:23:42.997Z,4.60
2022-08-01T08:26:11.207Z,4.10
2022-08-01T08:28:40.668Z,4.28
2022-08-01T08:31:25.038Z,4.65
2022-08-01T08:33:58.475Z,4.47
2022-08-01T08:36:30.800Z,4.22
2022-08-01T08:39:00.522Z,4.07
2022-08-01T08:41:27.835Z,4.07
2022-08-01T08:44:09.982Z,3.60
2022-08-01T08:46:42.682Z,4.28
2022-08-01T08:49:13.650Z,3.70
2022-08-01T08:51:43.262Z,3.83
2022-08-01T08:54:12.853Z,4.10
2022-08-01T08:56:41.381Z,4.00
2022-08-01T08:59:08.935Z,3.60
2022-08-01T09:01:37.076Z,4.15
2022-08-01T09:04:04.777Z,3.65
2022-08-01T09:06:34.958Z,3.63
2022-08-01T09:09:02.764Z,3.67
2022-08-01T09:11:30.111Z,3.63
2022-08-01T09:14:05.227Z,3.53
2022-08-01T09:16:33.865Z,3.60
2022-08-01T09:19:16.252Z,3.88
2022-08-01T09:22:05.620Z,4.00
2022-08-01T09:24:34.459Z,3.38
2022-08-01T09:27:15.904Z,3.65
2022-08-01T09:29:43.246Z,3.75
2022-08-01T09:32:16.154Z,3.88
2022-08-01T09:34:43.858Z,3.47
2022-08-01T09:37:15.341Z,3.97
2022-08-01T09:39:42.728Z,3.58
2022-08-01T09:42:29.112Z,3.72
2022-08-01T09:44:57.060Z,3.70
2022-08-01T09:47:39.252Z,3.40
2022-08-01T09:50:11.142Z,3.40
2022-08-01T09:52:41.011Z,3.17
2022-08-01T09:55:10.555Z,3.35
2022-08-01T09:57:37.883Z,3.38
2022-08-01T10:00:06.772Z,3.08
2022-08-01T10:02:36.029Z,3.28
2022-08-01T10:05:08.364Z,2.80
2022-08-01T10:07:44.311Z,3.33
2022-08-01T10:10:17.916Z,3.20
2022-08-01T10:12:49.203Z,3.10
2022-08-01T10:15:17.988Z,3.47
2022-08-01T10:17:54.516Z,3.58
2022-08-01T10:20:30.084Z,3.53
2022-08-01T10:23:05.975Z,3.38
2022-08-01T10:25:43.831Z,3.55
2022-08-01T10:28:18.233Z,3.63
2022-08-01T10:30:50.219Z,3.50
2022-08-01T10:33:20.084Z,3.30
2022-08-01T10:36:08.623Z,3.97
2022-08-01T10:38:37.326Z,3.53
2022-08-01T10:41:08.826Z,3.63
2022-08-01T10:43:37.069Z,3.80
2022-08-01T10:46:05.906Z,3.60
2022-08-01T10:48:44.299Z,3.38
2022-08-01T10:51:18.022Z,3.60
2022-08-01T10:53:54.225Z,3.25
2022-08-01T10:56:27.092Z,3.53
2022-08-01T10:59:06.014Z,3.15
2022-08-01T11:01:37.655Z,3.10
2022-08-01T11:04:16.086Z,3.15
2022-08-01T11:07:03.652Z,3.15
2022-08-01T11:09:39.999Z,3.08
2022-08-01T11:12:12.975Z,3.22
2022-08-01T11:15:29.438Z,3.42
2022-08-01T11:18:01.115Z,2.70
2022-08-01T11:20:29.822Z,3.00
2022-08-01T11:23:24.810Z,3.22
2022-08-01T11:26:10.901Z,2.67
2022-08-01T11:28:44.494Z,2.95
2022-08-01T11:34:00.423Z,2.58
2022-08-01T11:36:57.679Z,3.20
2022-08-01T11:39:19.439Z,2.88
2022-08-01T11:41:49.011Z,2.60
2022-08-01T11:44:24.931Z,2.63
2022-08-01T11:46:59.040Z,2.83
2022-08-01T11:49:29.592Z,2.80
2022-08-01T11:52:04.110Z,2.60
2022-08-01T11:54:35.750Z,2.92
2022-08-01T11:57:06.966Z,2.85
2022-08-01T11:59:41.488Z,3.13
2022-08-01T12:02:31.063Z,2.38
2022-08-01T12:05:00.703Z,3.13
2022-08-01T12:07:29.400Z,2.55
2022-08-01T12:10:02.966Z,2.65
2022-08-01T12:12:31.652Z,2.40
2022-08-01T12:15:02.676Z,2.28
2022-08-01T12:17:34.823Z,2.63
2022-08-01T12:20:04.366Z,2.75
2022-08-01T12:22:31.999Z,2.60
2022-08-01T12:25:06.605Z,2.78
2022-08-01T12:27:34.636Z,2.70
2022-08-01T12:30:07.883Z,2.92
2022-08-01T12:32:38.366Z,3.00
2022-08-01T12:35:09.061Z,3.10
2022-08-01T12:37:37.381Z,3.15
2022-08-01T12:40:11.906Z,3.13
2022-08-01T12:42:39.955Z,3.38
2022-08-01T12:45:12.818Z,3.67
2022-08-01T12:47:40.909Z,3.70
2022-08-01T12:50:13.212Z,3.40
2022-08-01T12:52:40.865Z,3.00
2022-08-01T12:55:14.514Z,3.53
2022-08-01T12:57:43.987Z,3.65
2022-08-01T13:00:19.693Z,3.33
2022-08-01T13:02:48.308Z,3.10
2022-08-01T13:05:17.107Z,2.70
2022-08-01T13:07:49.936Z,2.42
2022-08-01T13:10:28.136Z,2.50
2022-08-01T13:12:57.831Z,2.50
2022-08-01T13:15:29.718Z,2.60
2022-08-01T13:17:57.040Z,3.05
2022-08-01T13:20:30.179Z,3.33
2022-08-01T13:23:12.899Z,3.20
2022-08-01T13:25:54.405Z,3.33
2022-08-01T13:28:23.936Z,3.13
2022-08-01T13:31:04.807Z,3.13
2022-08-01T13:33:42.654Z,2.80
2022-08-01T13:36:09.831Z,2.50
2022-08-01T13:38:37.476Z,2.35
2022-08-01T13:41:04.804Z,2.38
2022-08-01T13:43:33.368Z,2.30
2022-08-01T13:46:21.153Z,2.85
2022-08-01T13:48:48.483Z,2.60
2022-08-01T13:51:22.157Z,3.08
2022-08-01T13:53:50.478Z,2.90
2022-08-01T13:56:17.664Z,3.13
2022-08-01T13:58:45.711Z,2.97
2022-08-01T14:01:13.303Z,2.80
2022-08-01T14:03:41.976Z,2.55
2022-08-01T14:06:11.411Z,2.45
2022-08-01T14:08:39.039Z,2.30
2022-08-01T14:11:13.370Z,2.00
2022-08-01T14:13:46.902Z,2.33
2022-08-01T14:16:14.491Z,1.90
2022-08-01T14:18:44.532Z,2.33
2022-08-01T14:21:12.087Z,2.10
2022-08-01T14:23:39.928Z,1.75
2022-08-01T14:26:12.047Z,1.92
2022-08-01T14:28:40.299Z,2.10
2022-08-01T14:31:07.904Z,2.15
2022-08-01T14:33:35.971Z,1.95
2022-08-01T14:36:28.974Z,2.10
2022-08-01T14:38:53.446Z,2.10
2022-08-01T14:41:20.947Z,2.10
2022-08-01T14:43:48.322Z,2.40
2022-08-01T14:46:16.042Z,2.20
2022-08-01T14:48:43.508Z,1.88
2022-08-01T14:51:12.219Z,1.90
2022-08-01T14:53:40.090Z,1.73
2022-08-01T14:56:10.274Z,2.03
2022-08-01T14:58:37.779Z,2.30
2022-08-01T15:01:05.434Z,2.10
2022-08-01T15:03:32.994Z,2.42
2022-08-01T15:06:00.549Z,2.13
2022-08-01T15:08:29.643Z,2.10
2022-08-01T15:10:56.842Z,2.30
2022-08-01T15:13:24.179Z,2.47
2022-08-01T15:15:52.056Z,1.90
2022-08-01T15:18:19.451Z,1.67
2022-08-01T15:20:46.968Z,2.10
2022-08-01T15:23:14.585Z,1.77
2022-08-01T15:25:43.323Z,1.60
2022-08-01T15:28:11.683Z,1.67
2022-08-01T15:30:40.429Z,1.83
2022-08-01T15:33:07.859Z,1.48
2022-08-01T15:35:35.174Z,1.90
2022-08-01T15:38:02.772Z,1.80
2022-08-01T15:40:30.042Z,1.65
2022-08-01T15:42:58.827Z,1.50
2022-08-01T15:45:46.383Z,1.48
2022-08-01T15:48:13.749Z,1.20
2022-08-01T15:50:41.288Z,1.50
2022-08-01T15:53:08.603Z,1.30
2022-08-01T15:55:36.565Z,1.40
2022-08-01T15:58:07.760Z,1.25
2022-08-01T16:00:39.430Z,1.23
2022-08-01T16:03:07.577Z,1.25
2022-08-01T16:05:38.150Z,1.40
2022-08-01T16:08:08.608Z,1.30
2022-08-01T16:10:35.917Z,1.35
2022-08-01T16:13:07.560Z,1.40
2022-08-01T16:15:38.167Z,1.25
2022-08-01T16:18:06.293Z,1.30
2022-08-01T16:20:34.230Z,1.30
2022-08-01T16:23:02.336Z,1.30
2022-08-01T16:25:29.555Z,1.50
2022-08-01T16:27:56.984Z,1.40
2022-08-01T16:30:24.816Z,1.20
2022-08-01T16:32:54.680Z,1.25
2022-08-01T16:35:33.916Z,1.00
2022-08-01T16:38:06.049Z,1.13
2022-08-01T16:40:46.420Z,1.25
2022-08-01T16:43:14.989Z,1.10
2022-08-01T16:45:43.324Z,0.80
2022-08-01T16:48:13.314Z,0.80
2022-08-01T16:50:41.051Z,0.80
2022-08-01T16:53:08.718Z,0.60
2022-08-01T16:55:49.892Z,0.70
2022-08-01T16:58:23.536Z,0.90
2022-08-01T17:00:56.764Z,0.52
2022-08-01T17:03:46.536Z,0.82
2022-08-01T17:06:14.022Z,0.85
2022-08-01T17:08:53.869Z,0.90
2022-08-01T17:11:21.673Z,0.90
2022-08-01T17:13:49.264Z,1.13
2022-08-01T17:16:16.949Z,1.05
2022-08-01T17:18:45.715Z,0.93
2022-08-01T17:21:13.362Z,1.10
2022-08-01T17:23:40.793Z,0.90
2022-08-01T17:26:08.418Z,1.10
2022-08-01T17:28:36.475Z,1.15
2022-08-01T17:31:03.885Z,1.20
2022-08-01T17:33:44.531Z,1.17
2022-08-01T17:36:16.062Z,1.60
2022-08-01T17:38:43.492Z,1.55
2022-08-01T17:41:10.944Z,1.10
2022-08-01T17:43:38.987Z,1.67
2022-08-01T17:46:06.283Z,1.23
2022-08-01T17:48:33.547Z,1.60
2022-08-01T17:51:01.281Z,1.30
2022-08-01T17:53:30.150Z,1.25
2022-08-01T17:55:58.332Z,1.30
2022-08-01T17:58:45.062Z,1.33
2022-08-01T18:01:14.820Z,1.50
2022-08-01T18:03:42.659Z,1.58
2022-08-01T18:06:10.718Z,1.70
2022-08-01T18:08:39.566Z,1.55
2022-08-01T18:11:07.210Z,1.55
2022-08-01T18:13:34.572Z,1.95
2022-08-01T18:16:01.943Z,1.80
2022-08-01T18:18:33.537Z,1.80
2022-08-01T18:21:02.556Z,1.88
2022-08-01T18:23:30.030Z,1.55
2022-08-01T18:26:05.533Z,1.80
2022-08-01T18:28:39.395Z,1.83
2022-08-01T18:31:09.517Z,1.73
2022-08-01T18:33:36.870Z,2.05
2022-08-01T18:36:05.066Z,1.80
2022-08-01T18:38:35.035Z,1.90
2022-08-01T18:41:06.264Z,2.08
2022-08-01T18:43:33.534Z,2.25
2022-08-01T18:46:01.163Z,2.40
2022-08-01T18:48:28.810Z,2.30
2022-08-01T18:50:57.345Z,1.90
2022-08-01T18:53:25.358Z,3.25
2022-08-01T18:55:52.689Z,1.70
2022-08-01T18:58:21.506Z,1.65
2022-08-01T19:00:49.210Z,1.60
2022-08-01T19:03:16.723Z,1.70
2022-08-01T19:05:44.031Z,2.15
2022-08-01T19:08:11.618Z,1.88
2022-08-01T19:10:39.950Z,1.90
2022-08-01T19:13:07.583Z,1.83
2022-08-01T19:15:37.593Z,2.28
2022-08-01T19:18:05.673Z,2.50
2022-08-01T19:20:32.971Z,2.90
2022-08-01T19:23:00.893Z,2.40
2022-08-01T19:25:28.419Z,2.00
2022-08-01T19:27:58.589Z,2.30
2022-08-01T19:30:33.481Z,2.20
2022-08-01T19:33:04.994Z,2.10
2022-08-01T19:35:35.772Z,2.42
2022-08-01T19:38:03.919Z,2.15
2022-08-01T19:40:32.404Z,2.30
2022-08-01T19:43:00.561Z,2.35
2022-08-01T19:45:29.317Z,2.38
2022-08-01T19:47:58.029Z,2.08
2022-08-01T19:50:32.057Z,2.13
2022-08-01T19:53:03.043Z,2.40
2022-08-01T19:55:32.743Z,2.47
2022-08-01T19:58:27.028Z,2.28
2022-08-01T20:00:50.682Z,2.30
2022-08-01T20:03:22.421Z,2.25
2022-08-01T20:05:52.359Z,2.28
2022-08-01T20:08:21.176Z,2.42
2022-08-01T20:10:51.671Z,2.50
2022-08-01T20:13:19.505Z,2.42
2022-08-01T20:15:47.583Z,2.35
2022-08-01T20:18:14.956Z,2.17
2022-08-01T20:20:44.306Z,2.47
2022-08-01T20:23:18.296Z,2.25
2022-08-01T20:25:48.817Z,2.10
2022-08-01T20:28:21.427Z,2.67
2022-08-01T20:30:54.110Z,2.70
2022-08-01T20:33:21.974Z,2.28
2022-08-01T20:35:53.235Z,2.20
2022-08-01T20:38:24.330Z,2.60
2022-08-01T20:40:53.660Z,2.33
2022-08-01T20:43:22.746Z,2.58
2022-08-01T20:45:50.793Z,2.63
2022-08-01T20:48:21.366Z,2.38
2022-08-01T20:50:54.278Z,2.25
2022-08-01T20:53:24.272Z,2.60
2022-08-01T20:55:59.652Z,2.72
2022-08-01T20:58:34.147Z,2.53
2022-08-01T21:01:03.496Z,2.78
2022-08-01T21:03:45.540Z,3.00
2022-08-01T21:06:14.051Z,2.88
2022-08-01T21:08:44.877Z,3.22
2022-08-01T21:11:16.942Z,3.17
2022-08-01T21:13:46.019Z,3.15
2022-08-01T21:16:24.057Z,2.83
2022-08-01T21:21:50.822Z,2.92
2022-08-01T21:24:25.775Z,3.35
2022-08-01T21:26:54.398Z,2.83
2022-08-01T21:29:24.983Z,3.00
2022-08-01T21:31:53.874Z,3.10
2022-08-01T21:34:21.180Z,3.13
2022-08-01T21:36:48.983Z,3.35
2022-08-01T21:39:16.659Z,3.35
2022-08-01T21:42:03.390Z,3.05
2022-08-01T21:44:34.646Z,3.03
2022-08-01T21:47:03.071Z,3.88
2022-08-01T21:49:31.003Z,3.40
2022-08-01T21:52:04.240Z,3.63
2022-08-01T21:54:39.921Z,3.70
2022-08-01T21:57:16.681Z,5.15
2022-08-01T21:59:50.121Z,3.75
2022-08-01T22:02:23.566Z,4.25
2022-08-01T22:04:55.966Z,3.05
2022-08-01T22:07:26.223Z,3.42
2022-08-01T22:09:53.849Z,3.28
2022-08-01T22:12:22.947Z,3.22
2022-08-01T22:14:55.976Z,3.17
2022-08-01T22:17:24.559Z,3.30
2022-08-01T22:19:54.642Z,3.42
2022-08-01T22:22:50.631Z,3.00
2022-08-01T22:25:15.176Z,3.60
2022-08-01T22:28:06.202Z,3.70
2022-08-01T22:30:34.583Z,4.03
2022-08-01T22:33:15.625Z,3.30
2022-08-01T22:35:45.852Z,3.47
2022-08-01T22:38:13.163Z,3.95
2022-08-01T22:40:48.065Z,4.05
2022-08-01T22:43:25.182Z,3.53
2022-08-01T22:46:10.268Z,3.17
2022-08-01T22:51:38.302Z,3.42
2022-08-01T22:57:19.635Z,3.72
2022-08-01T23:00:09.493Z,3.25
2022-08-01T23:02:45.255Z,3.85
2022-08-01T23:05:15.171Z,3.30
2022-08-01T23:07:49.639Z,3.40
2022-08-01T23:10:20.386Z,2.85
2022-08-01T23:12:48.774Z,3.53
2022-08-01T23:15:17.544Z,3.13
2022-08-01T23:17:47.161Z,3.28
2022-08-01T23:20:17.458Z,3.30
2022-08-01T23:22:44.845Z,3.15
2022-08-01T23:25:14.026Z,3.17
2022-08-01T23:27:54.270Z,3.17
2022-08-01T23:30:35.352Z,3.47
2022-08-01T23:33:03.931Z,3.05
2022-08-01T23:35:32.101Z,3.08
2022-08-01T23:38:03.344Z,3.22
2022-08-01T23:40:32.094Z,3.30
2022-08-01T23:42:59.991Z,2.88
2022-08-01T23:45:27.593Z,3.00
2022-08-01T23:47:56.685Z,3.17
2022-08-01T23:50:24.466Z,2.90
2022-08-01T23:52:56.087Z,2.97
2022-08-01T23:55:37.753Z,2.78
2022-08-01T23:58:05.502Z,2.92
